createdAt,value
2023-01-26T00:01:45.245Z,31.60
2023-01-26T00:04:13.250Z,32.90
2023-01-26T00:06:41.206Z,30.20
2023-01-26T00:09:14.318Z,30.50
2023-01-26T00:11:42.566Z,32.50
2023-01-26T00:14:10.579Z,32.00
2023-01-26T00:16:39.271Z,28.50
2023-01-26T00:19:07.482Z,28.50
2023-01-26T00:21:35.460Z,28.70
2023-01-26T00:24:04.796Z,30.50
2023-01-26T00:26:32.953Z,29.70
2023-01-26T00:29:01.504Z,31.50
2023-01-26T00:31:29.663Z,32.60
2023-01-26T00:33:57.963Z,34.60
2023-01-26T00:36:25.962Z,29.70
2023-01-26T00:38:54.210Z,30.80
2023-01-26T00:41:40.624Z,33.70
2023-01-26T00:44:10.012Z,33.50
2023-01-26T00:46:38.397Z,36.20
2023-01-26T00:49:08.106Z,34.00
2023-01-26T00:51:36.109Z,38.20
2023-01-26T00:54:05.330Z,35.80
2023-01-26T00:56:33.432Z,33.10
2023-01-26T00:59:01.393Z,32.30
2023-01-26T01:01:29.279Z,33.90
2023-01-26T01:03:57.226Z,36.00
2023-01-26T01:06:25.101Z,34.00
2023-01-26T01:08:53.433Z,34.80
2023-01-26T01:11:21.401Z,37.10
2023-01-26T01:13:49.291Z,35.30
2023-01-26T01:16:18.078Z,38.30
2023-01-26T01:18:46.420Z,34.50
2023-01-26T01:21:17.319Z,31.50
2023-01-26T01:23:45.209Z,32.30
2023-01-26T01:26:14.346Z,32.70
2023-01-26T01:28:43.696Z,34.50
2023-01-26T01:31:15.060Z,32.00
2023-01-26T01:33:43.544Z,31.30
2023-01-26T01:36:14.650Z,30.70
2023-01-26T01:38:44.090Z,32.50
2023-01-26T01:41:14.341Z,31.50
2023-01-26T01:43:42.902Z,32.20
2023-01-26T01:46:17.638Z,33.30
2023-01-26T01:49:14.819Z,29.10
2023-01-26T01:51:47.027Z,30.40
2023-01-26T01:54:19.502Z,32.90
2023-01-26T01:56:52.586Z,31.10
2023-01-26T01:59:21.543Z,34.30
2023-01-26T02:01:51.983Z,33.60
2023-01-26T02:04:22.777Z,34.10
2023-01-26T02:06:54.055Z,34.10
2023-01-26T02:09:51.527Z,32.40
2023-01-26T02:12:22.026Z,30.90
2023-01-26T02:14:52.905Z,31.40
2023-01-26T02:17:22.801Z,31.60
2023-01-26T02:19:59.857Z,32.20
2023-01-26T02:23:00.122Z,32.80
2023-01-26T02:25:40.010Z,33.10
2023-01-26T02:28:08.846Z,32.50
2023-01-26T02:30:36.860Z,31.60
2023-01-26T02:33:04.792Z,30.80
2023-01-26T02:35:35.193Z,32.80
2023-01-26T02:38:03.318Z,33.80
2023-01-26T02:40:43.620Z,35.60
2023-01-26T02:43:11.679Z,35.40
2023-01-26T02:45:41.056Z,31.20
2023-01-26T02:48:09.190Z,33.90
2023-01-26T02:50:37.107Z,31.50
2023-01-26T02:53:05.071Z,33.30
2023-01-26T02:55:33.056Z,32.60
2023-01-26T02:58:03.584Z,31.90
2023-01-26T03:00:40.880Z,35.20
2023-01-26T03:03:19.092Z,33.50
2023-01-26T03:05:47.469Z,33.80
2023-01-26T03:08:15.548Z,28.70
2023-01-26T03:10:47.511Z,32.30
2023-01-26T03:13:15.867Z,32.90
2023-01-26T03:15:52.555Z,32.20
2023-01-26T03:19:02.168Z,31.80
2023-01-26T03:21:48.661Z,29.80
2023-01-26T03:24:35.568Z,29.30
2023-01-26T03:27:27.737Z,30.80
2023-01-26T03:29:58.620Z,32.30
2023-01-26T03:32:27.027Z,35.90
2023-01-26T03:34:55.281Z,37.60
2023-01-26T03:37:25.040Z,32.80
2023-01-26T03:40:19.804Z,31.20
2023-01-26T03:43:06.252Z,29.90
2023-01-26T03:45:52.738Z,30.60
2023-01-26T03:48:39.992Z,29.90
2023-01-26T03:51:26.501Z,32.70
2023-01-26T03:54:12.911Z,31.40
2023-01-26T03:56:40.915Z,30.00
2023-01-26T03:59:15.528Z,27.60
2023-01-26T04:02:05.216Z,30.70
2023-01-26T04:04:52.874Z,30.10
2023-01-26T04:07:43.164Z,30.80
2023-01-26T04:10:11.659Z,30.70
2023-01-26T04:12:43.090Z,33.20
2023-01-26T04:15:34.772Z,27.70
2023-01-26T04:18:27.757Z,28.00
2023-01-26T04:21:16.325Z,30.50
2023-01-26T04:23:45.766Z,33.00
2023-01-26T04:26:14.207Z,32.50
2023-01-26T04:28:42.825Z,34.00
2023-01-26T04:31:11.127Z,30.40
2023-01-26T04:33:39.740Z,28.60
2023-01-26T04:36:09.805Z,27.60
2023-01-26T04:38:41.432Z,29.10
2023-01-26T04:41:09.565Z,31.90
2023-01-26T04:46:12.125Z,29.40
2023-01-26T04:48:41.111Z,32.60
2023-01-26T04:51:18.098Z,33.50
2023-01-26T04:53:46.580Z,33.80
2023-01-26T04:56:30.804Z,31.50
2023-01-26T04:59:02.371Z,31.40
2023-01-26T05:01:32.436Z,33.10
2023-01-26T05:04:02.111Z,32.50
2023-01-26T05:06:31.557Z,35.00
2023-01-26T05:08:59.909Z,35.20
2023-01-26T05:11:28.747Z,34.70
2023-01-26T05:14:16.057Z,31.70
2023-01-26T05:17:10.083Z,31.60
2023-01-26T05:19:40.855Z,34.30
2023-01-26T05:22:14.497Z,33.00
2023-01-26T05:24:55.101Z,32.00
2023-01-26T05:27:37.553Z,30.60
2023-01-26T05:30:06.829Z,33.70
2023-01-26T05:32:37.118Z,30.30
2023-01-26T05:35:06.653Z,30.50
2023-01-26T05:37:34.959Z,40.60
2023-01-26T05:40:02.920Z,34.50
2023-01-26T05:42:31.116Z,34.40
2023-01-26T05:45:07.971Z,40.50
2023-01-26T05:47:37.341Z,33.70
2023-01-26T05:50:06.333Z,35.20
2023-01-26T05:52:35.464Z,32.00
2023-01-26T05:55:04.920Z,30.50
2023-01-26T05:57:33.221Z,31.00
2023-01-26T06:00:06.591Z,32.70
2023-01-26T06:02:41.989Z,31.30
2023-01-26T06:05:13.039Z,35.20
2023-01-26T06:07:44.042Z,34.70
2023-01-26T06:10:22.593Z,33.20
2023-01-26T06:13:06.097Z,33.00
2023-01-26T06:15:48.484Z,32.30
2023-01-26T06:18:16.476Z,31.00
2023-01-26T06:20:50.168Z,32.30
2023-01-26T06:23:19.395Z,33.30
2023-01-26T06:25:48.228Z,32.20
2023-01-26T06:28:16.207Z,33.50
2023-01-26T06:30:44.964Z,32.30
2023-01-26T06:33:13.556Z,34.40
2023-01-26T06:35:41.493Z,31.90
2023-01-26T06:38:12.491Z,28.60
2023-01-26T06:40:40.607Z,29.70
2023-01-26T06:43:08.573Z,31.50
2023-01-26T06:45:37.220Z,32.90
2023-01-26T06:48:05.259Z,32.10
2023-01-26T06:50:35.811Z,36.00
2023-01-26T06:53:25.264Z,37.00
2023-01-26T06:56:06.649Z,31.60
2023-01-26T06:58:37.751Z,31.70
2023-01-26T07:01:27.285Z,41.30
2023-01-26T07:03:55.689Z,36.50
2023-01-26T07:06:23.604Z,46.40
2023-01-26T07:08:51.512Z,48.90
2023-01-26T07:11:20.706Z,53.10
2023-01-26T07:13:48.704Z,48.50
2023-01-26T07:16:18.376Z,39.50
2023-01-26T07:18:46.741Z,38.10
2023-01-26T07:21:18.569Z,35.70
2023-01-26T07:23:47.335Z,37.60
2023-01-26T07:26:15.477Z,44.60
2023-01-26T07:28:43.584Z,55.30
2023-01-26T07:31:12.874Z,58.10
2023-01-26T07:33:40.927Z,40.10
2023-01-26T07:36:11.025Z,38.50
2023-01-26T07:38:39.088Z,41.00
2023-01-26T07:41:12.330Z,42.20
2023-01-26T07:43:42.076Z,38.10
2023-01-26T07:46:13.171Z,42.20
2023-01-26T07:48:41.870Z,44.10
2023-01-26T07:51:11.266Z,45.40
2023-01-26T07:53:39.861Z,38.30
2023-01-26T07:56:16.221Z,36.20
2023-01-26T07:58:44.152Z,44.10
2023-01-26T08:01:14.411Z,44.40
2023-01-26T08:03:42.880Z,55.10
2023-01-26T08:06:12.406Z,51.30
2023-01-26T08:08:41.896Z,48.60
2023-01-26T08:11:11.627Z,50.40
2023-01-26T08:13:39.539Z,44.20
2023-01-26T08:16:12.459Z,41.50
2023-01-26T08:18:43.134Z,37.00
2023-01-26T08:21:12.886Z,40.00
2023-01-26T08:23:41.692Z,44.30
2023-01-26T08:26:12.471Z,47.60
2023-01-26T08:28:41.311Z,47.80
2023-01-26T08:31:20.944Z,49.40
2023-01-26T08:33:51.089Z,45.30
2023-01-26T08:36:22.384Z,44.70
2023-01-26T08:38:51.396Z,44.20
2023-01-26T08:41:19.398Z,42.90
2023-01-26T08:43:47.544Z,46.00
2023-01-26T08:46:15.607Z,46.40
2023-01-26T08:48:43.651Z,46.10
2023-01-26T08:51:11.880Z,44.40
2023-01-26T08:53:39.739Z,44.80
2023-01-26T08:56:10.412Z,40.80
2023-01-26T08:58:38.893Z,38.90
2023-01-26T09:01:10.645Z,38.00
2023-01-26T09:03:39.627Z,40.00
2023-01-26T09:06:09.738Z,43.10
2023-01-26T09:08:38.046Z,47.40
2023-01-26T09:11:07.748Z,43.90
2023-01-26T09:13:37.292Z,45.60
2023-01-26T09:16:07.309Z,44.20
2023-01-26T09:18:35.529Z,41.90
2023-01-26T09:21:07.901Z,40.40
2023-01-26T09:23:36.850Z,39.90
2023-01-26T09:26:04.893Z,40.40
2023-01-26T09:28:32.883Z,40.90
2023-01-26T09:31:12.168Z,60.70
2023-01-26T09:33:40.489Z,52.70
2023-01-26T09:36:11.240Z,46.30
2023-01-26T09:38:40.275Z,45.00
2023-01-26T09:41:11.271Z,43.60
2023-01-26T09:43:48.049Z,39.50
2023-01-26T09:46:25.496Z,40.00
2023-01-26T09:49:10.708Z,39.80
2023-01-26T09:52:04.579Z,44.60
2023-01-26T09:54:39.003Z,45.10
2023-01-26T09:57:19.629Z,41.40
2023-01-26T09:59:58.564Z,41.00
2023-01-26T10:03:08.506Z,40.80
2023-01-26T10:05:50.826Z,40.10
2023-01-26T10:08:40.695Z,42.00
2023-01-26T10:11:29.132Z,44.10
2023-01-26T10:14:03.508Z,47.30
2023-01-26T10:16:34.021Z,45.90
2023-01-26T10:19:12.751Z,46.20
2023-01-26T10:21:47.482Z,43.50
2023-01-26T10:24:20.653Z,41.50
2023-01-26T10:26:49.592Z,40.70
2023-01-26T10:29:17.880Z,38.50
2023-01-26T10:31:45.892Z,38.70
2023-01-26T10:34:17.799Z,39.70
2023-01-26T10:36:47.117Z,40.30
2023-01-26T10:39:17.626Z,38.30
2023-01-26T10:42:01.900Z,34.80
2023-01-26T10:44:39.340Z,36.90
2023-01-26T10:47:15.031Z,37.20
2023-01-26T10:49:43.775Z,40.00
2023-01-26T10:52:17.860Z,40.00
2023-01-26T10:54:46.534Z,42.30
2023-01-26T10:57:30.833Z,38.90
2023-01-26T11:00:07.973Z,41.60
2023-01-26T11:02:36.877Z,44.10
2023-01-26T11:05:08.009Z,43.60
2023-01-26T11:07:41.029Z,41.00
2023-01-26T11:10:19.751Z,39.90
2023-01-26T11:12:48.453Z,46.70
2023-01-26T11:15:25.013Z,46.20
2023-01-26T11:18:02.179Z,43.60
2023-01-26T11:20:48.043Z,43.30
2023-01-26T11:23:41.356Z,44.70
2023-01-26T11:26:47.403Z,44.80
2023-01-26T11:29:33.211Z,40.20
2023-01-26T11:32:13.191Z,36.90
2023-01-26T11:35:08.489Z,39.50
2023-01-26T11:40:26.695Z,42.10
2023-01-26T11:43:22.040Z,47.00
2023-01-26T11:49:07.723Z,45.60
2023-01-26T11:51:51.049Z,44.00
2023-01-26T11:54:36.232Z,41.50
2023-01-26T11:57:39.035Z,42.70
2023-01-26T12:00:30.063Z,48.30
2023-01-26T12:03:12.653Z,43.60
2023-01-26T12:05:43.672Z,45.40
2023-01-26T12:08:21.799Z,44.30
2023-01-26T12:11:23.081Z,40.30
2023-01-26T12:14:09.645Z,41.30
2023-01-26T12:16:56.433Z,41.80
2023-01-26T12:19:41.610Z,42.90
2023-01-26T12:22:25.957Z,47.30
2023-01-26T12:25:28.938Z,92.60
2023-01-26T12:28:07.445Z,52.80
2023-01-26T12:30:46.371Z,42.50
2023-01-26T12:33:15.252Z,40.30
2023-01-26T12:35:48.763Z,37.20
2023-01-26T12:38:22.248Z,47.50
2023-01-26T12:41:27.933Z,42.40
2023-01-26T12:44:01.686Z,44.80
2023-01-26T12:46:35.002Z,44.00
2023-01-26T12:49:25.780Z,43.80
2023-01-26T12:52:06.355Z,44.20
2023-01-26T12:54:50.309Z,39.90
2023-01-26T12:57:22.242Z,41.10
2023-01-26T12:59:51.296Z,39.90
2023-01-26T13:02:31.814Z,40.10
2023-01-26T13:05:01.938Z,35.80
2023-01-26T13:07:39.024Z,41.20
2023-01-26T13:10:16.446Z,45.10
2023-01-26T13:13:21.102Z,45.40
2023-01-26T13:16:17.750Z,42.80
2023-01-26T13:18:50.985Z,44.20
2023-01-26T13:21:40.578Z,48.50
2023-01-26T13:24:17.453Z,43.30
2023-01-26T13:26:51.099Z,41.00
2023-01-26T13:29:33.302Z,38.60
2023-01-26T13:32:10.292Z,39.40
2023-01-26T13:34:48.344Z,41.20
2023-01-26T13:37:57.156Z,41.60
2023-01-26T13:40:48.093Z,43.60
2023-01-26T13:43:38.166Z,41.20
2023-01-26T13:46:12.715Z,44.90
2023-01-26T13:48:52.481Z,43.50
2023-01-26T13:51:29.467Z,41.00
2023-01-26T13:54:01.504Z,39.70
2023-01-26T13:56:31.388Z,41.70
2023-01-26T13:59:16.171Z,39.60
2023-01-26T14:01:47.814Z,40.10
2023-01-26T14:04:21.124Z,40.80
2023-01-26T14:07:06.451Z,44.90
2023-01-26T14:09:44.594Z,46.20
2023-01-26T14:12:22.917Z,48.70
2023-01-26T14:15:03.284Z,47.60
2023-01-26T14:17:34.617Z,46.50
2023-01-26T14:20:17.026Z,40.30
2023-01-26T14:22:45.088Z,43.70
2023-01-26T14:25:13.286Z,50.40
2023-01-26T14:27:42.615Z,49.10
2023-01-26T14:30:29.186Z,51.80
2023-01-26T14:33:15.548Z,58.70
2023-01-26T14:35:55.180Z,59.80
2023-01-26T14:38:23.214Z,60.50
2023-01-26T14:40:54.146Z,57.00
2023-01-26T14:43:23.426Z,47.30
2023-01-26T14:45:51.299Z,57.50
2023-01-26T14:48:22.358Z,54.10
2023-01-26T14:50:50.485Z,64.50
2023-01-26T14:53:22.726Z,60.40
2023-01-26T14:55:52.500Z,64.60
2023-01-26T14:58:27.818Z,58.30
2023-01-26T15:00:58.711Z,52.20
2023-01-26T15:03:37.166Z,51.60
2023-01-26T15:06:13.921Z,50.00
2023-01-26T15:08:52.465Z,50.80
2023-01-26T15:11:47.944Z,62.80
2023-01-26T15:14:31.093Z,66.90
2023-01-26T15:16:59.493Z,63.10
2023-01-26T15:19:40.042Z,56.60
2023-01-26T15:22:20.690Z,54.00
2023-01-26T15:25:19.718Z,53.20
2023-01-26T15:27:52.360Z,53.60
2023-01-26T15:30:33.552Z,51.70
2023-01-26T15:33:02.477Z,54.00
2023-01-26T15:35:33.177Z,51.20
2023-01-26T15:38:12.610Z,52.00
2023-01-26T15:40:40.768Z,48.80
2023-01-26T15:43:19.821Z,50.80
2023-01-26T15:45:57.777Z,54.30
2023-01-26T15:48:26.892Z,58.50
2023-01-26T15:52:13.679Z,63.30
2023-01-26T15:54:42.059Z,61.80
2023-01-26T15:57:13.554Z,57.20
2023-01-26T15:59:42.488Z,56.50
2023-01-26T16:02:15.927Z,60.10
2023-01-26T16:04:44.388Z,63.60
2023-01-26T16:07:14.773Z,60.30
2023-01-26T16:09:43.441Z,57.80
2023-01-26T16:12:31.127Z,60.20
2023-01-26T16:14:59.925Z,56.40
2023-01-26T16:17:28.044Z,53.50
2023-01-26T16:19:56.095Z,56.50
2023-01-26T16:22:24.016Z,61.40
2023-01-26T16:24:51.975Z,66.40
2023-01-26T16:27:21.631Z,62.60
2023-01-26T16:29:49.749Z,65.70
2023-01-26T16:32:28.584Z,62.40
2023-01-26T16:34:56.651Z,69.80
2023-01-26T16:37:24.578Z,64.60
2023-01-26T16:39:52.649Z,62.20
2023-01-26T16:42:21.770Z,69.90
2023-01-26T16:44:50.101Z,85.00
2023-01-26T16:47:17.999Z,73.60
2023-01-26T16:49:45.909Z,78.10
2023-01-26T16:52:13.828Z,75.90
2023-01-26T16:54:41.729Z,73.40
2023-01-26T16:57:09.646Z,64.20
2023-01-26T16:59:37.631Z,63.10
2023-01-26T17:02:09.525Z,62.60
2023-01-26T17:04:37.469Z,66.40
2023-01-26T17:07:05.438Z,67.20
2023-01-26T17:09:33.514Z,67.40
2023-01-26T17:12:01.479Z,60.90
2023-01-26T17:14:29.519Z,57.30
2023-01-26T17:16:58.185Z,57.90
2023-01-26T17:19:26.846Z,54.50
2023-01-26T17:21:54.753Z,61.10
2023-01-26T17:24:22.772Z,63.60
2023-01-26T17:26:50.704Z,60.80
2023-01-26T17:29:18.596Z,61.80
2023-01-26T17:31:46.664Z,63.60
2023-01-26T17:34:14.729Z,56.80
2023-01-26T17:36:45.524Z,61.30
2023-01-26T17:39:14.352Z,68.70
2023-01-26T17:41:42.205Z,77.00
2023-01-26T17:44:10.122Z,81.50
2023-01-26T17:46:37.978Z,84.50
2023-01-26T17:49:06.365Z,90.40
2023-01-26T17:51:34.279Z,81.50
2023-01-26T17:54:02.304Z,81.50
2023-01-26T17:56:31.088Z,78.50
2023-01-26T17:58:58.991Z,78.30
2023-01-26T18:01:27.086Z,78.80
2023-01-26T18:03:55.102Z,76.20
2023-01-26T18:06:23.038Z,77.40
2023-01-26T18:08:51.048Z,73.50
2023-01-26T18:11:18.974Z,66.80
2023-01-26T18:13:47.092Z,70.20
2023-01-26T18:16:18.363Z,70.50
2023-01-26T18:18:48.643Z,63.40
2023-01-26T18:21:19.261Z,62.00
2023-01-26T18:23:48.730Z,59.50
2023-01-26T18:26:18.323Z,62.20
2023-01-26T18:28:46.913Z,56.90
2023-01-26T18:31:18.625Z,57.80
2023-01-26T18:33:47.200Z,55.10
2023-01-26T18:36:17.076Z,56.80
2023-01-26T18:38:49.970Z,56.80
2023-01-26T18:41:19.698Z,59.50
2023-01-26T18:43:52.173Z,57.00
2023-01-26T18:46:22.175Z,50.60
2023-01-26T18:48:53.631Z,63.60
2023-01-26T18:51:22.733Z,75.30
2023-01-26T18:53:50.718Z,58.00
2023-01-26T18:56:18.828Z,59.50
2023-01-26T18:58:46.784Z,54.50
2023-01-26T19:01:16.467Z,56.60
2023-01-26T19:03:47.676Z,58.00
2023-01-26T19:06:18.453Z,65.60
2023-01-26T19:08:48.256Z,59.20
2023-01-26T19:11:16.164Z,57.60
2023-01-26T19:13:46.388Z,65.90
2023-01-26T19:16:14.381Z,67.30
2023-01-26T19:18:42.262Z,70.30
2023-01-26T19:21:10.340Z,73.80
2023-01-26T19:23:39.954Z,70.00
2023-01-26T19:26:13.563Z,68.10
2023-01-26T19:28:42.109Z,65.30
2023-01-26T19:31:11.839Z,66.10
2023-01-26T19:33:40.415Z,65.90
2023-01-26T19:36:09.298Z,69.90
2023-01-26T19:38:39.335Z,67.00
2023-01-26T19:41:07.369Z,60.30
2023-01-26T19:43:35.383Z,63.30
2023-01-26T19:46:05.677Z,59.00
2023-01-26T19:48:34.300Z,65.40
2023-01-26T19:51:12.838Z,63.70
2023-01-26T19:53:43.631Z,64.70
2023-01-26T19:56:20.159Z,68.00
2023-01-26T19:58:54.245Z,67.40
2023-01-26T20:01:24.032Z,60.30
2023-01-26T20:03:54.350Z,58.40
2023-01-26T20:06:25.204Z,53.60
2023-01-26T20:08:54.731Z,52.20
2023-01-26T20:11:25.304Z,51.30
2023-01-26T20:14:02.535Z,51.90
2023-01-26T20:16:31.173Z,55.20
2023-01-26T20:18:59.691Z,56.20
2023-01-26T20:21:28.441Z,59.70
2023-01-26T20:23:56.808Z,53.70
2023-01-26T20:26:28.617Z,51.20
2023-01-26T20:28:58.467Z,48.70
2023-01-26T20:31:27.165Z,48.20
2023-01-26T20:33:55.624Z,50.30
2023-01-26T20:36:26.482Z,54.80
2023-01-26T20:38:55.052Z,56.20
2023-01-26T20:41:28.218Z,63.60
2023-01-26T20:44:00.977Z,66.50
2023-01-26T20:46:32.124Z,71.70
2023-01-26T20:49:01.100Z,63.60
2023-01-26T20:51:33.720Z,58.30
2023-01-26T20:54:03.344Z,54.90
2023-01-26T20:56:31.849Z,55.80
2023-01-26T20:58:59.828Z,61.30
2023-01-26T21:01:27.858Z,61.60
2023-01-26T21:03:56.105Z,64.40
2023-01-26T21:06:25.693Z,60.80
2023-01-26T21:08:55.467Z,50.80
2023-01-26T21:11:26.048Z,50.30
2023-01-26T21:13:58.888Z,50.60
2023-01-26T21:16:26.864Z,52.10
2023-01-26T21:18:55.221Z,57.40
2023-01-26T21:21:23.989Z,58.20
2023-01-26T21:23:52.070Z,57.60
2023-01-26T21:26:23.338Z,56.70
2023-01-26T21:28:57.025Z,53.40
2023-01-26T21:31:27.458Z,57.80
2023-01-26T21:33:56.848Z,55.30
2023-01-26T21:36:27.643Z,51.70
2023-01-26T21:38:57.556Z,52.50
2023-01-26T21:41:51.432Z,54.60
2023-01-26T21:44:24.654Z,67.50
2023-01-26T21:46:56.751Z,71.70
2023-01-26T21:49:25.085Z,67.70
2023-01-26T21:52:12.024Z,68.80
2023-01-26T21:54:40.066Z,81.10
2023-01-26T21:57:28.697Z,74.50
2023-01-26T21:59:56.884Z,72.00
2023-01-26T22:02:24.888Z,73.10
2023-01-26T22:04:52.800Z,62.00
2023-01-26T22:07:20.800Z,54.40
2023-01-26T22:09:48.989Z,55.00
2023-01-26T22:12:16.929Z,50.20
2023-01-26T22:14:44.889Z,53.40
2023-01-26T22:17:12.844Z,54.20
2023-01-26T22:19:40.825Z,55.90
2023-01-26T22:22:08.764Z,59.60
2023-01-26T22:24:36.665Z,53.40
2023-01-26T22:27:05.708Z,49.00
2023-01-26T22:29:34.095Z,48.70
2023-01-26T22:32:02.744Z,50.60
2023-01-26T22:34:32.554Z,52.40
2023-01-26T22:37:00.475Z,52.10
2023-01-26T22:39:28.361Z,53.80
2023-01-26T22:41:56.395Z,54.70
2023-01-26T22:44:24.390Z,51.30
2023-01-26T22:46:52.659Z,50.80
2023-01-26T22:49:20.592Z,50.20
2023-01-26T22:51:48.517Z,52.40
2023-01-26T22:54:16.627Z,53.60
2023-01-26T22:56:44.491Z,54.10
2023-01-26T22:59:12.377Z,58.20
2023-01-26T23:01:41.011Z,56.60
2023-01-26T23:04:12.750Z,53.40
2023-01-26T23:06:40.725Z,51.10
2023-01-26T23:09:08.727Z,53.30
2023-01-26T23:11:36.705Z,54.10
2023-01-26T23:14:04.638Z,53.80
2023-01-26T23:16:32.611Z,62.90
2023-01-26T23:19:00.641Z,61.00
2023-01-26T23:21:29.741Z,57.80
2023-01-26T23:23:58.454Z,57.40
2023-01-26T23:26:26.923Z,58.90
2023-01-26T23:28:55.150Z,60.20
2023-01-26T23:31:23.203Z,60.60
2023-01-26T23:33:51.341Z,61.30
2023-01-26T23:36:20.673Z,62.60
2023-01-26T23:38:48.778Z,63.20
2023-01-26T23:41:17.476Z,57.40
2023-01-26T23:43:45.772Z,58.10
2023-01-26T23:46:13.737Z,55.30
2023-01-26T23:48:41.722Z,58.50
2023-01-26T23:51:11.369Z,58.30
2023-01-26T23:53:39.800Z,57.20
2023-01-26T23:56:11.743Z,58.90
2023-01-26T23:58:39.737Z,60.60
